GBZBF EGKB-EGKB
Flight info
| Callsign | GBZBF |
|---|---|
| Flight time | 0h 20m |
| Altitude | 3000 |
| Route | LOCAL VFR NEAR SEVENOAKS VRP |
| Aircraft | RV14/L-SDGRWY/L |
Departure
| Time | 2026-04-28 17:05 |
|---|---|
| Airport | London Biggin Hill Airport (EGKB) |
Arrival
| Time | 2026-04-28 17:25 |
|---|---|
| Airport | London Biggin Hill Airport (EGKB) |
| Time | Latitude | Longitude | Altitude | Speed | Heading |
|---|---|---|---|---|---|
| 2026-04-28 16:56 | 51.33159 | 0.02935 | 566 ft | 0 kts | 199° |
| 2026-04-28 16:59 | 51.33157 | 0.02934 | 567 ft | 4 kts | 192° |
| 2026-04-28 17:00 | 51.33107 | 0.02944 | 565 ft | 10 kts | 182° |
| 2026-04-28 17:00 | 51.33005 | 0.02903 | 571 ft | 15 kts | 205° |
| 2026-04-28 17:00 | 51.32912 | 0.02845 | 569 ft | 16 kts | 196° |
| 2026-04-28 17:00 | 51.32817 | 0.02772 | 569 ft | 15 kts | 214° |
| 2026-04-28 17:01 | 51.32723 | 0.02696 | 575 ft | 17 kts | 202° |
| 2026-04-28 17:01 | 51.32634 | 0.02625 | 576 ft | 11 kts | 207° |
| 2026-04-28 17:01 | 51.32567 | 0.02573 | 580 ft | 17 kts | 206° |
| 2026-04-28 17:01 | 51.32481 | 0.02551 | 584 ft | 9 kts | 168° |
| 2026-04-28 17:02 | 51.32457 | 0.02561 | 583 ft | 0 kts | 163° |
| 2026-04-28 17:03 | 51.32435 | 0.02587 | 584 ft | 8 kts | 122° |
| 2026-04-28 17:04 | 51.32487 | 0.02758 | 585 ft | 35 kts | 24° |
| 2026-04-28 17:04 | 51.32885 | 0.03052 | 694 ft | 78 kts | 23° |
| 2026-04-28 17:05 | 51.33993 | 0.04201 | 1419 ft | 114 kts | 41° |
| 2026-04-28 17:05 | 51.34587 | 0.05319 | 1629 ft | 147 kts | 57° |
| 2026-04-28 17:05 | 51.35101 | 0.06914 | 1750 ft | 168 kts | 68° |
| 2026-04-28 17:06 | 51.35675 | 0.10612 | 1940 ft | 176 kts | 92° |
| 2026-04-28 17:06 | 51.35457 | 0.12557 | 1938 ft | 182 kts | 108° |
| 2026-04-28 17:06 | 51.35063 | 0.16663 | 1656 ft | 192 kts | 102° |
| 2026-04-28 17:07 | 51.34749 | 0.18702 | 1660 ft | 187 kts | 104° |
| 2026-04-28 17:07 | 51.34482 | 0.20712 | 1649 ft | 182 kts | 102° |
| 2026-04-28 17:07 | 51.34339 | 0.22710 | 1646 ft | 180 kts | 92° |
| 2026-04-28 17:07 | 51.34313 | 0.24707 | 1645 ft | 178 kts | 91° |
| 2026-04-28 17:08 | 51.34290 | 0.26688 | 1645 ft | 178 kts | 91° |
| 2026-04-28 17:08 | 51.34268 | 0.28674 | 1647 ft | 178 kts | 91° |
| 2026-04-28 17:08 | 51.34246 | 0.30666 | 1643 ft | 179 kts | 91° |
| 2026-04-28 17:08 | 51.33977 | 0.32542 | 1642 ft | 178 kts | 117° |
| 2026-04-28 17:09 | 51.33355 | 0.34265 | 1640 ft | 178 kts | 121° |
| 2026-04-28 17:09 | 51.32727 | 0.35961 | 1642 ft | 177 kts | 121° |
| 2026-04-28 17:09 | 51.32104 | 0.37640 | 1720 ft | 175 kts | 121° |
| 2026-04-28 17:09 | 51.31487 | 0.39305 | 1795 ft | 173 kts | 121° |
| 2026-04-28 17:10 | 51.30868 | 0.40970 | 1870 ft | 173 kts | 121° |
| 2026-04-28 17:10 | 51.30251 | 0.42629 | 1944 ft | 174 kts | 121° |
| 2026-04-28 17:10 | 51.29634 | 0.44289 | 2013 ft | 173 kts | 121° |
| 2026-04-28 17:10 | 51.29024 | 0.45925 | 2088 ft | 173 kts | 121° |
| 2026-04-28 17:11 | 51.28408 | 0.47575 | 2142 ft | 174 kts | 121° |
| 2026-04-28 17:11 | 51.27931 | 0.48562 | 2700 ft | 56 kts | 142° |
| 2026-04-28 17:11 | 51.27884 | 0.49664 | 1590 ft | 127 kts | 89° |
| 2026-04-28 17:11 | 51.27382 | 0.50129 | 1411 ft | 116 kts | 233° |
| 2026-04-28 17:12 | 51.27046 | 0.48753 | 1439 ft | 147 kts | 251° |
| 2026-04-28 17:12 | 51.26472 | 0.47316 | 1512 ft | 160 kts | 230° |
| 2026-04-28 17:12 | 51.25769 | 0.45919 | 1616 ft | 164 kts | 232° |
| 2026-04-28 17:12 | 51.25069 | 0.44436 | 1736 ft | 166 kts | 236° |
| 2026-04-28 17:13 | 51.24445 | 0.42882 | 1862 ft | 166 kts | 238° |
| 2026-04-28 17:13 | 51.23825 | 0.41317 | 1983 ft | 167 kts | 238° |
| 2026-04-28 17:13 | 51.23196 | 0.39728 | 2110 ft | 167 kts | 238° |
| 2026-04-28 17:13 | 51.22571 | 0.38154 | 2142 ft | 170 kts | 238° |
| 2026-04-28 17:14 | 51.21935 | 0.36547 | 2149 ft | 174 kts | 238° |
| 2026-04-28 17:14 | 51.21279 | 0.34893 | 2147 ft | 175 kts | 238° |
| 2026-04-28 17:14 | 51.20642 | 0.33287 | 2149 ft | 175 kts | 238° |
| 2026-04-28 17:14 | 51.20005 | 0.31686 | 2154 ft | 175 kts | 238° |
| 2026-04-28 17:15 | 51.19609 | 0.30688 | 2149 ft | 175 kts | 238° |
| 2026-04-28 17:15 | 51.19123 | 0.29417 | 2147 ft | 175 kts | 244° |
| 2026-04-28 17:15 | 51.19016 | 0.27525 | 2137 ft | 176 kts | 286° |
| 2026-04-28 17:15 | 51.19753 | 0.26011 | 2137 ft | 176 kts | 326° |
| 2026-04-28 17:16 | 51.20826 | 0.25073 | 2150 ft | 175 kts | 332° |
| 2026-04-28 17:16 | 51.21910 | 0.24174 | 2151 ft | 176 kts | 332° |
| 2026-04-28 17:16 | 51.22993 | 0.23277 | 2154 ft | 176 kts | 332° |
| 2026-04-28 17:16 | 51.24081 | 0.22375 | 2158 ft | 176 kts | 332° |
| 2026-04-28 17:17 | 51.25174 | 0.21469 | 2148 ft | 176 kts | 332° |
| 2026-04-28 17:17 | 51.26260 | 0.20570 | 2148 ft | 175 kts | 332° |
| 2026-04-28 17:17 | 51.26974 | 0.19967 | 2141 ft | 175 kts | 331° |
| 2026-04-28 17:17 | 51.28034 | 0.18992 | 2158 ft | 174 kts | 325° |
| 2026-04-28 17:18 | 51.28641 | 0.17382 | 2111 ft | 176 kts | 274° |
| 2026-04-28 17:18 | 51.28106 | 0.15779 | 2200 ft | 172 kts | 207° |
| 2026-04-28 17:18 | 51.27019 | 0.16247 | 2047 ft | 184 kts | 120° |
| 2026-04-28 17:18 | 51.27264 | 0.18071 | 1987 ft | 182 kts | 36° |
| 2026-04-28 17:19 | 51.28454 | 0.18159 | 1923 ft | 179 kts | 334° |
| 2026-04-28 17:19 | 51.29234 | 0.16678 | 1818 ft | 177 kts | 283° |
| 2026-04-28 17:19 | 51.29000 | 0.14852 | 2001 ft | 168 kts | 230° |
| 2026-04-28 17:19 | 51.27958 | 0.14366 | 2046 ft | 169 kts | 160° |
| 2026-04-28 17:20 | 51.27379 | 0.15907 | 1966 ft | 175 kts | 82° |
| 2026-04-28 17:20 | 51.27979 | 0.17544 | 1991 ft | 174 kts | 38° |
| 2026-04-28 17:20 | 51.29116 | 0.17698 | 1909 ft | 175 kts | 326° |
| 2026-04-28 17:20 | 51.29344 | 0.15972 | 1799 ft | 175 kts | 253° |
| 2026-04-28 17:21 | 51.28829 | 0.14249 | 1912 ft | 166 kts | 237° |
| 2026-04-28 17:21 | 51.28081 | 0.12870 | 2009 ft | 164 kts | 224° |
| 2026-04-28 17:21 | 51.27190 | 0.11743 | 2051 ft | 159 kts | 216° |
| 2026-04-28 17:22 | 51.25936 | 0.09199 | 1634 ft | 134 kts | 256° |
| 2026-04-28 17:22 | 51.25908 | 0.07694 | 1527 ft | 134 kts | 276° |
| 2026-04-28 17:22 | 51.26108 | 0.06252 | 1459 ft | 134 kts | 288° |
| 2026-04-28 17:23 | 51.26946 | 0.03539 | 1284 ft | 133 kts | 296° |
| 2026-04-28 17:23 | 51.27384 | 0.02233 | 1218 ft | 132 kts | 301° |
| 2026-04-28 17:23 | 51.27950 | 0.01117 | 1152 ft | 115 kts | 322° |
| 2026-04-28 17:23 | 51.28559 | 0.00821 | 1070 ft | 88 kts | 2° |
| 2026-04-28 17:24 | 51.29142 | 0.01079 | 1030 ft | 86 kts | 24° |
| 2026-04-28 17:24 | 51.29709 | 0.01244 | 1055 ft | 82 kts | 356° |
| 2026-04-28 17:24 | 51.30292 | 0.01236 | 1064 ft | 87 kts | 358° |
| 2026-04-28 17:24 | 51.30902 | 0.01465 | 1032 ft | 92 kts | 24° |
| 2026-04-28 17:25 | 51.31475 | 0.01949 | 933 ft | 92 kts | 27° |
| 2026-04-28 17:25 | 51.32533 | 0.02790 | 640 ft | 77 kts | 25° |
| 2026-04-28 17:25 | 51.32888 | 0.03060 | 574 ft | 30 kts | 27° |
| 2026-04-28 17:26 | 51.33053 | 0.03198 | 569 ft | 23 kts | 25° |
| 2026-04-28 17:26 | 51.33186 | 0.03298 | 563 ft | 20 kts | 30° |
| 2026-04-28 17:26 | 51.33310 | 0.03400 | 555 ft | 20 kts | 25° |
| 2026-04-28 17:26 | 51.33374 | 0.03359 | 550 ft | 8 kts | 284° |
| 2026-04-28 17:27 | 51.33379 | 0.03260 | 548 ft | 8 kts | 264° |
| 2026-04-28 17:27 | 51.33370 | 0.03205 | 548 ft | 0 kts | 243° |